Gulf Park Estates, Mississippi
Current Conditions -  °F | °C
As of 2:09 PM on Friday 19 Dec 2014 (Local Time) from KBIX Reporting Station
Light Rain Light Rain  
Wind Chill: 52°   Ceiling: 3200
Heat Index: 52°   Visibility: 7mi
Dew Point: 52°   Wind: 7mph
Humidity: 100%   Direction: 50°NE
Pressure: 30.07"   Gusts: NA
Location:  30.418°N, 88.7558°W
Report Text: KBIX 192009Z 05006KT 7SM -RA SCT007 BKN032 OVC060 11/11 A3007
Loading
Personal Weather Stations






























Interactive Weather Map New forecast layout! Learn more

10-Day Weather Forecast

Advertisements
Track Severe Weather on mobile